Ana Sayfa
METAR-TAF:

METAR-TAF

Havaalanları :

Ciudad Juarez, Meksika

Enlem: 31-38N, Boylam: 106-26W, yükseklik: 1171 m

Güncel hava durumu gözlemi

Rapor saat 17:47 UTC de 45 dakika önce yapıldı.
Rüzgar güneydan 8 kt
Sıcaklık 38°C
Nem 16%
Basınç 1015 hPa
Görüş mesafesi: 16.1 km
Açık gökyüzü

METAR: MMCS 051747Z 17008KT 10SM SKC 38/08 A2998 RMK SLP997 57008 961

Saat: 12:32 (18:32 UTC)

Tahmin

Rapor saat 17:44 UTC de 48 dakika önce yapıldı.
Ayın 05'si saat 18 UTC'den ayın 06'si saat 18 UTC'ye kadar geçerli Tahmin
Rüzgar güneydoğudan 10 kt ve 20 kt'a kadar ani rüzgarlar
Görüş mesafesi: 10 km
Açık gökyüzü
Dönüşüyor
ayın 06'si saat 02 UTC'den ayın 06'si saat 03 UTC'ye kadar
Rüzgar doğu/güneydoğudan 8 kt
Ayın 06'si saat 1700 UTC'den
Rüzgar güney/güneydoğudan 15 kt
Görüş mesafesi: 10 km
2000 ft yükseklikte parçalı bulutlu

TAF: MMCS 051744Z 0518/0618 13010G20KT P6SM SKC BECMG 0602/0603 12008KT FM061700 15015KT P6SM SCT020

4.000'den fazla havaalanı için hava durumu gözlemleri ve tahminleri (METAR ve TAF raporları).

Kullanılabilir istasyonlar harita üzerinde sarı ve kırmızı noktalarla gösterilir.

İstasyonun adını görmek için fareyi noktanın üzerinde gezdirin.

Sonrasında hava gözlem ve tahminlerini görmek için tıklayın.

Haritayı değiştirmek için: yaklaştırmak için siyah artı işaretli yeşil düğmeye ve uzaklaştırmak için de eksi işaretli düğmeye hızla tıklayın; bitişik haritalar için yeşil okları kullanın.


METAR-TAF: